Time;durP1;ratioP1;P1;durP2;ratioP2;P2;SDS_P1;SDS_P2;PMS_P1;PMS_P2;Temp;Humidity;BMP_temperature;BMP_pressure;BME280_temperature;BME280_humidity;BME280_pressure;Samples;Min_cycle;Max_cycle;Signal;HPM_P1;HPM_P2
2021/03/29 00:02:23;;;;;;;22.40;10.75;;;;;;;;;;5002610;28;20041;-61
2021/03/29 00:04:49;;;;;;;21.47;8.70;;;;;;;;;;5008009;28;20088;-59
2021/03/29 00:07:16;;;;;;;25.70;9.60;;;;;;;;;;5004287;28;20938;-59
2021/03/29 00:09:42;;;;;;;22.17;10.02;;;;;;;;;;5008218;28;20030;-59
2021/03/29 00:12:09;;;;;;;19.63;8.95;;;;;;;;;;5008073;28;20034;-58
2021/03/29 00:14:35;;;;;;;23.67;10.25;;;;;;;;;;5022241;23;20212;-65
2021/03/29 00:17:02;;;;;;;23.85;9.93;;;;;;;;;;4989815;28;20038;-67
2021/03/29 00:19:29;;;;;;;21.30;9.98;;;;;;;;;;4990765;28;20041;-65
2021/03/29 00:21:56;;;;;;;21.08;9.70;;;;;;;;;;4990792;28;20077;-65
2021/03/29 00:24:22;;;;;;;20.17;9.50;;;;;;;;;;4992002;28;20026;-66
2021/03/29 00:26:48;;;;;;;23.73;9.60;;;;;;;;;;4992598;28;20037;-66
2021/03/29 00:29:14;;;;;;;20.25;9.07;;;;;;;;;;4991333;28;20022;-65
2021/03/29 00:31:40;;;;;;;21.50;9.55;;;;;;;;;;4991590;28;20041;-65
2021/03/29 00:34:07;;;;;;;24.55;10.15;;;;;;;;;;4990721;28;20510;-63
2021/03/29 00:36:33;;;;;;;20.70;9.52;;;;;;;;;;4991237;28;20023;-64
2021/03/29 00:39:00;;;;;;;20.83;9.07;;;;;;;;;;4990824;28;20098;-63
2021/03/29 00:41:26;;;;;;;18.95;8.57;;;;;;;;;;4985057;28;20022;-63
2021/03/29 00:43:52;;;;;;;23.17;10.25;;;;;;;;;;4981884;28;20455;-64
2021/03/29 00:46:19;;;;;;;19.63;9.25;;;;;;;;;;4984104;28;20033;-64
2021/03/29 00:48:46;;;;;;;22.52;9.68;;;;;;;;;;4990829;28;20416;-65
2021/03/29 00:51:13;;;;;;;23.45;10.38;;;;;;;;;;4992164;28;20030;-65
2021/03/29 00:53:41;;;;;;;25.90;10.38;;;;;;;;;;4990485;28;20762;-65
2021/03/29 00:56:08;;;;;;;23.02;8.90;;;;;;;;;;4990499;28;20026;-65
2021/03/29 00:58:34;;;;;;;28.10;10.70;;;;;;;;;;4990654;28;20030;-64
2021/03/29 01:01:06;;;;;;;19.45;9.23;;;;;;;;;;4990713;28;20031;-64
2021/03/29 01:03:33;;;;;;;21.95;9.68;;;;;;;;;;4991358;28;20511;-65
2021/03/29 01:06:05;;;;;;;19.73;10.30;;;;;;;;;;4991616;28;20030;-65
2021/03/29 01:08:31;;;;;;;25.52;9.48;;;;;;;;;;4987324;28;20061;-65
2021/03/29 01:10:58;;;;;;;19.42;9.32;;;;;;;;;;4990470;28;20049;-67
2021/03/29 01:13:25;;;;;;;22.23;9.63;;;;;;;;;;4991905;28;20483;-66
2021/03/29 01:15:51;;;;;;;24.05;10.95;;;;;;;;;;4990353;28;20202;-64
2021/03/29 01:18:19;;;;;;;23.42;8.63;;;;;;;;;;4991867;28;20022;-65
2021/03/29 01:20:48;;;;;;;21.80;9.60;;;;;;;;;;4991830;28;20041;-65
2021/03/29 01:23:15;;;;;;;22.77;9.02;;;;;;;;;;4991855;28;20265;-66
2021/03/29 01:26:06;;;;;;;24.00;9.50;;;;;;;;;;4991198;28;20022;-65
2021/03/29 01:28:33;;;;;;;22.67;8.65;;;;;;;;;;4988078;28;20027;-66
2021/03/29 01:30:59;;;;;;;19.55;9.18;;;;;;;;;;4991039;28;20407;-65
2021/03/29 01:33:26;;;;;;;18.90;8.77;;;;;;;;;;4992864;28;20026;-64
2021/03/29 01:35:55;;;;;;;26.02;9.52;;;;;;;;;;4992782;28;20026;-66
2021/03/29 01:38:24;;;;;;;19.58;8.45;;;;;;;;;;4986421;28;20117;-66
2021/03/29 01:40:50;;;;;;;;;;;;;;;;;;4994178;28;20030;-65
2021/03/29 01:43:17;;;;;;;23.85;9.00;;;;;;;;;;4995025;28;19933;-65
2021/03/29 01:45:44;;;;;;;20.90;8.73;;;;;;;;;;4986575;28;20070;-67
2021/03/29 01:48:11;;;;;;;20.92;8.65;;;;;;;;;;4994911;28;20557;-66
2021/03/29 01:50:38;;;;;;;19.90;8.43;;;;;;;;;;4993763;28;20019;-65
2021/03/29 01:53:05;;;;;;;18.95;8.40;;;;;;;;;;4994375;28;20046;-65
2021/03/29 01:55:31;;;;;;;20.52;8.77;;;;;;;;;;4994845;28;20033;-65
2021/03/29 01:57:58;;;;;;;18.45;7.60;;;;;;;;;;4995013;28;20471;-65
2021/03/29 02:00:34;;;;;;;18.48;8.40;;;;;;;;;;4995066;28;20511;-64
2021/03/29 02:03:00;;;;;;;19.42;8.75;;;;;;;;;;4993714;28;20030;-65
2021/03/29 02:05:27;;;;;;;19.00;8.27;;;;;;;;;;4988804;28;20038;-64
2021/03/29 02:07:53;;;;;;;17.77;8.60;;;;;;;;;;4993779;28;20026;-64
2021/03/29 02:10:24;;;;;;;18.27;8.30;;;;;;;;;;4993534;28;20015;-64
2021/03/29 02:12:50;;;;;;;21.10;8.18;;;;;;;;;;4993426;28;20082;-64
2021/03/29 02:15:19;;;;;;;18.83;8.45;;;;;;;;;;4993251;28;20473;-67
2021/03/29 02:17:46;;;;;;;18.90;8.82;;;;;;;;;;4992653;28;20455;-63
2021/03/29 02:20:12;;;;;;;26.85;9.60;;;;;;;;;;4991973;28;20061;-64
2021/03/29 02:22:38;;;;;;;18.55;9.15;;;;;;;;;;4993400;28;20026;-66
2021/03/29 02:25:05;;;;;;;21.83;8.48;;;;;;;;;;4992737;28;20022;-65
2021/03/29 02:27:33;;;;;;;20.48;9.35;;;;;;;;;;4994421;28;20034;-65
2021/03/29 02:29:59;;;;;;;20.35;8.38;;;;;;;;;;4994688;28;20081;-67
2021/03/29 02:32:25;;;;;;;18.63;9.00;;;;;;;;;;4993093;28;20035;-65
2021/03/29 02:34:51;;;;;;;20.63;9.73;;;;;;;;;;4992920;28;20051;-65
2021/03/29 02:37:17;;;;;;;21.77;9.70;;;;;;;;;;4993008;28;20038;-66
2021/03/29 02:39:43;;;;;;;27.05;9.27;;;;;;;;;;4992713;28;20114;-68
2021/03/29 02:42:09;;;;;;;24.58;9.85;;;;;;;;;;4992928;28;20026;-68
2021/03/29 02:44:37;;;;;;;19.05;10.18;;;;;;;;;;4992634;28;20044;-67
2021/03/29 02:47:03;;;;;;;22.77;10.18;;;;;;;;;;4993945;28;20033;-65
2021/03/29 02:49:30;;;;;;;22.17;9.55;;;;;;;;;;4992835;28;20089;-65
2021/03/29 02:51:56;;;;;;;19.83;9.02;;;;;;;;;;4992595;28;20505;-67
2021/03/29 02:54:22;;;;;;;19.67;8.50;;;;;;;;;;4993731;28;20070;-65
2021/03/29 02:56:50;;;;;;;22.70;10.18;;;;;;;;;;4992728;28;20022;-65
2021/03/29 02:59:19;;;;;;;22.30;9.07;;;;;;;;;;4992705;28;20033;-66
2021/03/29 03:01:45;;;;;;;18.20;8.50;;;;;;;;;;4993900;28;20034;-65
2021/03/29 03:04:13;;;;;;;18.70;9.32;;;;;;;;;;4992650;28;20030;-65
2021/03/29 03:06:39;;;;;;;19.65;9.57;;;;;;;;;;4992637;28;20069;-66
2021/03/29 03:09:06;;;;;;;17.83;9.50;;;;;;;;;;4992266;28;20376;-65
2021/03/29 03:11:34;;;;;;;20.50;9.75;;;;;;;;;;4992242;28;20043;-64
2021/03/29 03:14:02;;;;;;;20.48;9.80;;;;;;;;;;4993560;28;20022;-65
2021/03/29 03:16:29;;;;;;;18.38;8.75;;;;;;;;;;4984510;28;20034;-65
2021/03/29 03:18:55;;;;;;;22.60;9.57;;;;;;;;;;5005769;28;20117;-65
2021/03/29 03:21:21;;;;;;;21.50;9.20;;;;;;;;;;4992479;28;20496;-66
2021/03/29 03:24:06;;;;;;;20.80;9.52;;;;;;;;;;4993249;28;20026;-64
2021/03/29 03:26:32;;;;;;;19.85;9.40;;;;;;;;;;4992225;28;20092;-66
2021/03/29 03:28:58;;;;;;;22.48;8.73;;;;;;;;;;4992083;28;20161;-64
2021/03/29 03:31:24;;;;;;;18.08;8.68;;;;;;;;;;4991907;28;20060;-64
2021/03/29 03:33:51;;;;;;;26.10;9.27;;;;;;;;;;4992951;28;20065;-65
2021/03/29 03:36:18;;;;;;;20.83;9.35;;;;;;;;;;4992811;28;20022;-66
2021/03/29 03:38:46;;;;;;;22.10;9.88;;;;;;;;;;4991334;28;20052;-65
2021/03/29 03:41:13;;;;;;;21.48;9.32;;;;;;;;;;4991699;28;20038;-67
2021/03/29 03:43:43;;;;;;;21.85;9.15;;;;;;;;;;4991235;28;20113;-64
2021/03/29 03:46:11;;;;;;;17.98;8.52;;;;;;;;;;4974362;28;20058;-64
2021/03/29 03:48:38;;;;;;;19.13;9.50;;;;;;;;;;4985532;28;20058;-64
2021/03/29 03:51:04;;;;;;;19.17;9.10;;;;;;;;;;4992696;28;20033;-65
2021/03/29 03:53:31;;;;;;;25.25;9.90;;;;;;;;;;4991072;28;20056;-65
2021/03/29 03:55:58;;;;;;;21.75;9.90;;;;;;;;;;4990839;28;20029;-64
2021/03/29 03:58:25;;;;;;;21.65;9.90;;;;;;;;;;4992899;28;20565;-63
2021/03/29 04:00:51;;;;;;;21.45;9.70;;;;;;;;;;4991384;28;20130;-63
2021/03/29 04:03:18;;;;;;;21.25;9.95;;;;;;;;;;4992631;28;20031;-65
2021/03/29 04:05:44;;;;;;;17.85;9.32;;;;;;;;;;4990804;28;20172;-64
2021/03/29 04:08:11;;;;;;;19.98;9.45;;;;;;;;;;4990012;28;20109;-64
2021/03/29 04:10:44;;;;;;;24.13;10.20;;;;;;;;;;4985530;28;20023;-65
2021/03/29 04:13:16;;;;;;;22.52;10.05;;;;;;;;;;4990935;28;20045;-65
2021/03/29 04:15:42;;;;;;;22.13;10.30;;;;;;;;;;4990690;28;20030;-64
2021/03/29 04:18:08;;;;;;;18.63;10.00;;;;;;;;;;4990709;28;20029;-65
2021/03/29 04:20:35;;;;;;;24.33;10.52;;;;;;;;;;4991839;28;20100;-66
2021/03/29 04:23:01;;;;;;;22.23;10.10;;;;;;;;;;4992103;28;20030;-65
2021/03/29 04:25:27;;;;;;;28.58;10.25;;;;;;;;;;4990125;28;20041;-65
2021/03/29 04:27:53;;;;;;;22.83;10.70;;;;;;;;;;4990837;28;20041;-64
2021/03/29 04:30:20;;;;;;;21.40;9.63;;;;;;;;;;4992343;28;20022;-64
2021/03/29 04:32:47;;;;;;;22.27;10.77;;;;;;;;;;4992053;28;20038;-66
2021/03/29 04:35:14;;;;;;;21.20;10.65;;;;;;;;;;4984336;28;20047;-64
2021/03/29 04:37:40;;;;;;;23.77;9.27;;;;;;;;;;4990563;28;20113;-66
2021/03/29 04:40:06;;;;;;;18.98;10.48;;;;;;;;;;4991328;28;20145;-66
2021/03/29 04:42:32;;;;;;;19.85;10.00;;;;;;;;;;4991509;28;20026;-65
2021/03/29 04:44:58;;;;;;;21.00;10.57;;;;;;;;;;4991470;28;20116;-65
2021/03/29 04:47:24;;;;;;;16.60;9.38;;;;;;;;;;4990086;28;20037;-66
2021/03/29 04:49:50;;;;;;;22.95;9.82;;;;;;;;;;4989317;28;20030;-65
2021/03/29 04:52:17;;;;;;;18.83;9.40;;;;;;;;;;4991657;28;20022;-65
2021/03/29 04:54:43;;;;;;;19.83;9.55;;;;;;;;;;4991268;28;20022;-65
2021/03/29 04:57:09;;;;;;;23.13;10.02;;;;;;;;;;4990414;28;20046;-66
2021/03/29 04:59:35;;;;;;;18.38;9.32;;;;;;;;;;4988040;28;20467;-63
2021/03/29 05:02:01;;;;;;;18.02;9.85;;;;;;;;;;4991567;28;20084;-65
2021/03/29 05:04:27;;;;;;;18.90;9.85;;;;;;;;;;4990000;28;20058;-64
2021/03/29 05:06:53;;;;;;;20.27;9.40;;;;;;;;;;4991614;28;20033;-64
2021/03/29 05:09:19;;;;;;;24.15;10.55;;;;;;;;;;4995034;28;20030;-63
2021/03/29 05:11:46;;;;;;;20.80;10.02;;;;;;;;;;4994537;28;20400;-64
2021/03/29 05:14:13;;;;;;;19.33;10.02;;;;;;;;;;4995265;28;20042;-65
2021/03/29 05:16:39;;;;;;;19.63;10.00;;;;;;;;;;4994001;28;20056;-65
2021/03/29 05:19:05;;;;;;;20.13;10.45;;;;;;;;;;4993689;28;20592;-65
2021/03/29 05:21:31;;;;;;;20.17;9.77;;;;;;;;;;4995276;28;20041;-65
2021/03/29 05:23:57;;;;;;;19.00;9.32;;;;;;;;;;4991113;28;20026;-63
2021/03/29 05:26:23;;;;;;;18.90;8.75;;;;;;;;;;4994426;28;20038;-65
2021/03/29 05:28:49;;;;;;;18.23;9.23;;;;;;;;;;4994282;28;20026;-66
2021/03/29 05:31:15;;;;;;;18.83;8.90;;;;;;;;;;4995377;28;20098;-65
2021/03/29 05:33:41;;;;;;;24.08;10.93;;;;;;;;;;4989761;28;20027;-64
2021/03/29 05:36:12;;;;;;;20.23;9.25;;;;;;;;;;4994914;28;20483;-66
2021/03/29 05:38:38;;;;;;;21.23;9.30;;;;;;;;;;4993750;28;20438;-65
2021/03/29 05:41:04;;;;;;;23.15;8.98;;;;;;;;;;4995194;28;20055;-64
2021/03/29 05:43:31;;;;;;;20.67;8.93;;;;;;;;;;4993583;28;20026;-65
2021/03/29 05:45:56;;;;;;;18.02;9.77;;;;;;;;;;4993194;28;20042;-64
2021/03/29 05:48:23;;;;;;;21.92;9.82;;;;;;;;;;4994768;28;20023;-63
2021/03/29 05:50:49;;;;;;;23.17;9.20;;;;;;;;;;4994994;28;20098;-64
2021/03/29 05:53:15;;;;;;;20.00;9.25;;;;;;;;;;4993363;28;20030;-64
2021/03/29 05:55:43;;;;;;;19.42;9.00;;;;;;;;;;4993132;28;20081;-64
2021/03/29 06:00:51;;;;;;;22.60;9.27;;;;;;;;;;4994779;28;20030;-65
2021/03/29 06:03:35;;;;;;;19.17;9.55;;;;;;;;;;4992872;28;20427;-65
2021/03/29 06:06:02;;;;;;;20.20;9.68;;;;;;;;;;4991591;28;20058;-65
2021/03/29 06:08:28;;;;;;;18.90;8.95;;;;;;;;;;4994642;28;20077;-65
2021/03/29 06:10:59;;;;;;;21.20;10.10;;;;;;;;;;4993431;28;20025;-65
2021/03/29 06:13:25;;;;;;;21.05;9.65;;;;;;;;;;4994674;28;20081;-65
2021/03/29 06:16:01;;;;;;;25.15;9.50;;;;;;;;;;5023087;23;20050;-58
2021/03/29 06:18:27;;;;;;;21.38;9.02;;;;;;;;;;5004755;28;20030;-59
2021/03/29 06:21:01;;;;;;;19.65;9.48;;;;;;;;;;5013342;28;20018;-60
2021/03/29 06:23:27;;;;;;;17.60;7.55;;;;;;;;;;5010654;28;20411;-60
2021/03/29 06:26:13;;;;;;;16.23;8.00;;;;;;;;;;5017223;28;20557;-57
2021/03/29 06:28:39;;;;;;;17.90;8.10;;;;;;;;;;5026211;28;20450;-60
2021/03/29 06:31:17;;;;;;;18.10;8.23;;;;;;;;;;5011491;28;20072;-59
2021/03/29 06:33:50;;;;;;;20.67;9.43;;;;;;;;;;5010365;28;20052;-62
2021/03/29 06:36:28;;;;;;;17.42;8.77;;;;;;;;;;5011640;28;20041;-59
2021/03/29 06:38:57;;;;;;;27.92;9.52;;;;;;;;;;5026047;28;20022;-61
2021/03/29 06:41:28;;;;;;;22.65;9.10;;;;;;;;;;5012005;28;20026;-56
2021/03/29 06:43:54;;;;;;;17.08;8.15;;;;;;;;;;5014233;28;20083;-59
2021/03/29 06:46:25;;;;;;;19.33;9.73;;;;;;;;;;5012455;28;20442;-59
2021/03/29 06:48:51;;;;;;;17.48;8.50;;;;;;;;;;5012905;28;20061;-62
2021/03/29 06:51:19;;;;;;;21.85;8.73;;;;;;;;;;5013997;28;20041;-64
2021/03/29 06:53:57;;;;;;;18.90;9.48;;;;;;;;;;5013896;28;20049;-59
2021/03/29 06:56:39;;;;;;;19.35;8.93;;;;;;;;;;5004928;28;20100;-60
2021/03/29 06:59:05;;;;;;;21.42;9.55;;;;;;;;;;5012666;28;20033;-61
2021/03/29 07:01:46;;;;;;;20.67;10.07;;;;;;;;;;5006103;28;20033;-60
2021/03/29 07:04:12;;;;;;;17.15;8.23;;;;;;;;;;5013631;28;20026;-61
2021/03/29 07:06:39;;;;;;;19.10;10.20;;;;;;;;;;5006621;28;20054;-62
2021/03/29 07:09:06;;;;;;;19.27;8.73;;;;;;;;;;4993286;28;20117;-62
2021/03/29 07:11:35;;;;;;;23.42;9.20;;;;;;;;;;5011480;28;20022;-61
2021/03/29 07:14:02;;;;;;;20.02;10.05;;;;;;;;;;5013075;28;20113;-62
2021/03/29 07:16:29;;;;;;;19.40;9.73;;;;;;;;;;5013026;28;20037;-62
2021/03/29 07:18:59;;;;;;;17.63;8.93;;;;;;;;;;5013171;28;20034;-62
2021/03/29 07:21:25;;;;;;;17.13;8.40;;;;;;;;;;4996961;28;20045;-62
2021/03/29 07:23:52;;;;;;;19.42;8.95;;;;;;;;;;5007879;28;20060;-62
2021/03/29 07:26:22;;;;;;;19.10;8.65;;;;;;;;;;5013759;28;20168;-60
2021/03/29 07:28:49;;;;;;;16.33;8.57;;;;;;;;;;5012933;28;20475;-61
2021/03/29 07:31:35;;;;;;;19.05;10.45;;;;;;;;;;5007664;28;20045;-62
2021/03/29 07:34:01;;;;;;;21.27;10.27;;;;;;;;;;5006782;28;20069;-62
2021/03/29 07:36:39;;;;;;;18.20;9.15;;;;;;;;;;5003900;28;20040;-62
2021/03/29 07:39:06;;;;;;;17.77;9.70;;;;;;;;;;5002824;28;20058;-61
2021/03/29 07:41:32;;;;;;;18.40;10.40;;;;;;;;;;5009252;28;20104;-61
2021/03/29 07:44:12;;;;;;;19.40;10.10;;;;;;;;;;5011668;28;20430;-60
2021/03/29 07:46:38;;;;;;;20.38;10.02;;;;;;;;;;5012479;28;20032;-60
2021/03/29 07:49:05;;;;;;;22.08;9.98;;;;;;;;;;5011840;28;20618;-60
2021/03/29 07:51:30;;;;;;;18.40;10.35;;;;;;;;;;5013067;28;20034;-60
2021/03/29 07:54:00;;;;;;;17.45;9.63;;;;;;;;;;5011843;28;20479;-62
2021/03/29 07:56:35;;;;;;;19.30;10.20;;;;;;;;;;5013189;28;20029;-62
2021/03/29 07:59:03;;;;;;;19.98;9.57;;;;;;;;;;5011620;28;20022;-59
2021/03/29 08:01:29;;;;;;;17.20;9.63;;;;;;;;;;5012529;28;20034;-63
2021/03/29 08:03:57;;;;;;;17.77;9.18;;;;;;;;;;5012221;28;20064;-63
2021/03/29 08:06:36;;;;;;;20.25;10.75;;;;;;;;;;5013748;28;20391;-59
2021/03/29 08:09:02;;;;;;;20.77;10.77;;;;;;;;;;5014039;28;20081;-61
2021/03/29 08:11:47;;;;;;;20.00;11.15;;;;;;;;;;5013781;28;20050;-60
2021/03/29 08:14:46;;;;;;;19.45;11.00;;;;;;;;;;5013589;28;20097;-61
2021/03/29 08:17:33;;;;;;;18.60;10.43;;;;;;;;;;4989939;28;20038;-64
2021/03/29 08:20:10;;;;;;;17.23;10.60;;;;;;;;;;5011325;28;20022;-64
2021/03/29 08:22:36;;;;;;;19.85;10.85;;;;;;;;;;5006822;28;20395;-63
2021/03/29 08:25:02;;;;;;;20.42;10.45;;;;;;;;;;5012121;28;20084;-62
2021/03/29 08:27:29;;;;;;;19.13;12.57;;;;;;;;;;5014169;28;20026;-63
2021/03/29 08:30:09;;;;;;;23.90;11.93;;;;;;;;;;5012885;28;20069;-61
2021/03/29 08:32:37;;;;;;;18.35;10.10;;;;;;;;;;5013137;28;20074;-62
2021/03/29 08:35:06;;;;;;;20.38;10.57;;;;;;;;;;5014154;28;20502;-62
2021/03/29 08:37:38;;;;;;;20.77;11.48;;;;;;;;;;5014871;28;20029;-63
2021/03/29 08:40:14;;;;;;;22.92;11.73;;;;;;;;;;5013090;28;20033;-63
2021/03/29 08:42:44;;;;;;;17.92;11.20;;;;;;;;;;5008894;28;20387;-62
2021/03/29 08:45:11;;;;;;;19.80;12.13;;;;;;;;;;5013050;28;20534;-60
2021/03/29 08:47:41;;;;;;;19.58;11.75;;;;;;;;;;5013176;28;20018;-61
2021/03/29 08:50:11;;;;;;;18.80;11.30;;;;;;;;;;5011800;28;20022;-58
2021/03/29 08:52:41;;;;;;;18.15;10.90;;;;;;;;;;5005649;28;20464;-59
2021/03/29 08:55:08;;;;;;;19.45;11.85;;;;;;;;;;5009042;28;20109;-58
2021/03/29 08:57:34;;;;;;;18.88;11.10;;;;;;;;;;5012486;28;20049;-63
2021/03/29 09:00:01;;;;;;;21.13;11.00;;;;;;;;;;5007657;28;20021;-60
2021/03/29 09:02:28;;;;;;;21.52;10.90;;;;;;;;;;5010823;28;20026;-58
2021/03/29 09:04:58;;;;;;;18.77;10.68;;;;;;;;;;5005380;28;20027;-58
2021/03/29 09:07:29;;;;;;;19.25;10.25;;;;;;;;;;5017286;28;20502;-60
2021/03/29 09:09:56;;;;;;;21.85;12.20;;;;;;;;;;5007535;28;20446;-58
2021/03/29 09:12:26;;;;;;;22.70;13.23;;;;;;;;;;5009034;28;20112;-60
2021/03/29 09:14:52;;;;;;;20.30;11.00;;;;;;;;;;5008481;28;20567;-57
2021/03/29 09:17:22;;;;;;;19.42;10.43;;;;;;;;;;5011559;28;20116;-59
2021/03/29 09:19:48;;;;;;;19.58;10.73;;;;;;;;;;5007670;28;20019;-58
2021/03/29 09:22:25;;;;;;;17.05;10.77;;;;;;;;;;5006472;28;20068;-57
2021/03/29 09:24:51;;;;;;;18.48;11.73;;;;;;;;;;5005342;28;20105;-58
2021/03/29 09:27:22;;;;;;;23.98;12.05;;;;;;;;;;5011599;28;20478;-58
2021/03/29 09:29:48;;;;;;;20.02;12.65;;;;;;;;;;5009469;28;20017;-60
2021/03/29 09:32:21;;;;;;;19.55;12.50;;;;;;;;;;5012415;28;20041;-58
2021/03/29 09:34:48;;;;;;;20.85;12.90;;;;;;;;;;5007442;28;20018;-59
2021/03/29 09:37:21;;;;;;;20.33;12.95;;;;;;;;;;5007568;28;20097;-58
2021/03/29 09:39:48;;;;;;;19.45;13.00;;;;;;;;;;5005554;28;20466;-54
2021/03/29 09:42:16;;;;;;;19.80;12.00;;;;;;;;;;5003755;28;20026;-57
2021/03/29 09:44:43;;;;;;;20.38;12.13;;;;;;;;;;5004973;28;20026;-59
2021/03/29 09:47:09;;;;;;;21.10;11.60;;;;;;;;;;5002451;28;20411;-55
2021/03/29 09:49:53;;;;;;;21.05;12.52;;;;;;;;;;5005363;28;20574;-57
2021/03/29 09:52:19;;;;;;;20.25;12.45;;;;;;;;;;5001648;28;20030;-55
2021/03/29 09:54:48;;;;;;;18.92;10.75;;;;;;;;;;5007177;28;20390;-53
2021/03/29 09:57:18;;;;;;;19.10;12.35;;;;;;;;;;5005038;28;20054;-56
2021/03/29 09:59:45;;;;;;;19.85;11.65;;;;;;;;;;5008634;28;20550;-58
2021/03/29 10:02:18;;;;;;;18.33;11.63;;;;;;;;;;5004485;28;20066;-59
2021/03/29 10:04:46;;;;;;;18.92;12.50;;;;;;;;;;5006422;28;20368;-58
2021/03/29 10:07:16;;;;;;;20.65;12.15;;;;;;;;;;5002883;28;20030;-54
2021/03/29 10:09:45;;;;;;;20.88;12.40;;;;;;;;;;4991418;28;20172;-56
2021/03/29 10:12:22;;;;;;;19.85;12.77;;;;;;;;;;5011362;28;20344;-59
2021/03/29 10:14:48;;;;;;;19.27;12.82;;;;;;;;;;5024186;28;20026;-56
2021/03/29 10:17:20;;;;;;;20.58;12.38;;;;;;;;;;5007717;28;20593;-55
2021/03/29 10:19:47;;;;;;;19.48;13.43;;;;;;;;;;5005305;28;20032;-54
2021/03/29 10:22:15;;;;;;;21.45;13.48;;;;;;;;;;5006892;28;20073;-54
2021/03/29 10:24:57;;;;;;;18.58;12.88;;;;;;;;;;5010511;28;20057;-62
2021/03/29 10:27:23;;;;;;;20.27;13.05;;;;;;;;;;5027112;28;20030;-60
2021/03/29 10:29:49;;;;;;;18.08;12.63;;;;;;;;;;5011005;28;20022;-62
2021/03/29 10:32:17;;;;;;;19.20;13.13;;;;;;;;;;5014260;28;20025;-60
2021/03/29 10:34:44;;;;;;;19.73;12.57;;;;;;;;;;5013842;28;20021;-62
2021/03/29 10:37:22;;;;;;;18.50;11.98;;;;;;;;;;5000471;28;20038;-58
2021/03/29 10:39:48;;;;;;;20.80;12.50;;;;;;;;;;5015815;28;20057;-61
2021/03/29 10:42:15;;;;;;;20.55;12.20;;;;;;;;;;5014157;28;20034;-62
2021/03/29 10:44:41;;;;;;;20.98;11.10;;;;;;;;;;5011776;28;20026;-61
2021/03/29 10:47:07;;;;;;;19.00;11.40;;;;;;;;;;5014267;28;20030;-60
2021/03/29 10:49:33;;;;;;;18.45;10.90;;;;;;;;;;5013571;28;20026;-60
2021/03/29 10:51:59;;;;;;;17.45;12.57;;;;;;;;;;5014675;28;20038;-62
2021/03/29 10:54:25;;;;;;;24.10;13.73;;;;;;;;;;5013833;28;20034;-63
2021/03/29 10:56:51;;;;;;;19.90;13.07;;;;;;;;;;5013540;28;20022;-62
2021/03/29 10:59:17;;;;;;;19.30;13.18;;;;;;;;;;5015080;28;20038;-64
2021/03/29 11:01:43;;;;;;;17.63;13.00;;;;;;;;;;5015485;28;20044;-63
2021/03/29 11:04:09;;;;;;;19.55;12.55;;;;;;;;;;5015790;28;20502;-60
2021/03/29 11:06:36;;;;;;;20.73;13.40;;;;;;;;;;5002552;28;20073;-63
2021/03/29 11:09:02;;;;;;;20.05;13.48;;;;;;;;;;5014081;28;20075;-62
2021/03/29 11:11:28;;;;;;;20.05;13.15;;;;;;;;;;5016972;28;20037;-61
2021/03/29 11:13:54;;;;;;;18.73;11.88;;;;;;;;;;5014735;28;20022;-62
2021/03/29 11:16:21;;;;;;;17.88;12.10;;;;;;;;;;5013575;28;20045;-62
2021/03/29 11:18:47;;;;;;;20.08;11.77;;;;;;;;;;5016300;28;20017;-62
2021/03/29 11:21:13;;;;;;;18.50;12.60;;;;;;;;;;5016745;28;20041;-63
2021/03/29 11:23:39;;;;;;;20.20;12.70;;;;;;;;;;5015623;28;20133;-62
2021/03/29 11:26:05;;;;;;;21.98;13.18;;;;;;;;;;5015634;28;20029;-63
2021/03/29 11:28:31;;;;;;;19.77;12.60;;;;;;;;;;5017346;28;20222;-65
2021/03/29 11:30:58;;;;;;;18.35;13.15;;;;;;;;;;5014845;28;20440;-63
2021/03/29 11:33:24;;;;;;;18.75;12.70;;;;;;;;;;5013477;28;20025;-63
2021/03/29 11:35:50;;;;;;;18.88;12.60;;;;;;;;;;5011835;28;20076;-62
2021/03/29 11:38:16;;;;;;;19.13;13.88;;;;;;;;;;4996912;28;20065;-61
2021/03/29 11:40:42;;;;;;;19.23;12.70;;;;;;;;;;5009283;28;20030;-63
2021/03/29 11:43:08;;;;;;;20.63;12.50;;;;;;;;;;5014171;28;20026;-63
2021/03/29 11:45:36;;;;;;;17.25;12.38;;;;;;;;;;5016717;28;20069;-63
2021/03/29 11:48:02;;;;;;;;;;;;;;;;;;5015790;28;20025;-62
2021/03/29 11:50:29;;;;;;;18.27;12.32;;;;;;;;;;4668941;28;9999871;-62
2021/03/29 11:52:55;;;;;;;17.17;12.25;;;;;;;;;;5011435;28;20452;-63
2021/03/29 11:55:21;;;;;;;20.90;12.88;;;;;;;;;;5009242;28;20025;-63
2021/03/29 11:57:47;;;;;;;19.15;12.68;;;;;;;;;;5014602;28;20033;-63
2021/03/29 12:00:29;;;;;;;17.55;12.27;;;;;;;;;;5014381;28;20026;-64
2021/03/29 12:04:00;;;;;;;16.75;11.80;;;;;;;;;;5015078;28;20029;-65
2021/03/29 12:05:56;;;;;;;18.80;11.95;;;;;;;;;;5000372;28;20034;-63
2021/03/29 12:13:36;;;;;;;19.02;12.63;;;;;;;;;;5008386;28;20144;-64
2021/03/29 12:16:06;;;;;;;17.85;12.43;;;;;;;;;;5015120;28;20529;-64
2021/03/29 12:18:42;;;;;;;17.88;12.43;;;;;;;;;;5016253;28;20030;-59
2021/03/29 12:21:16;;;;;;;17.70;13.07;;;;;;;;;;5013495;28;20049;-62
2021/03/29 12:23:44;;;;;;;19.40;13.18;;;;;;;;;;5020613;23;20435;-60
2021/03/29 12:26:11;;;;;;;18.85;13.05;;;;;;;;;;5006736;28;20026;-58
2021/03/29 12:28:42;;;;;;;22.17;13.15;;;;;;;;;;5012885;28;20029;-59
2021/03/29 12:31:08;;;;;;;16.58;12.45;;;;;;;;;;5013021;28;20014;-59
2021/03/29 12:33:34;;;;;;;17.80;12.52;;;;;;;;;;5011105;28;20030;-57
2021/03/29 12:36:00;;;;;;;17.90;13.45;;;;;;;;;;5011639;28;20504;-59
2021/03/29 12:38:31;;;;;;;23.00;12.85;;;;;;;;;;5013492;28;20029;-61
2021/03/29 12:40:59;;;;;;;16.23;12.32;;;;;;;;;;5011667;28;20037;-59
2021/03/29 12:44:01;;;;;;;17.13;12.48;;;5.50;99.90;;;;;;5012721;28;20026;-52
2021/03/29 12:46:20;;;;;;;19.60;12.13;;;;;;;;;;5010525;28;20065;-59
2021/03/29 12:48:45;;;;;;;19.98;14.40;;;22.70;53.30;;;;;;4664442;28;10000511;-59
2021/03/29 12:51:13;;;;;;;20.23;13.70;;;22.70;54.50;;;;;;5009659;28;20530;-58
2021/03/29 12:53:39;;;;;;;19.80;14.70;;;23.10;53.20;;;;;;5009116;28;20033;-58
2021/03/29 12:56:05;;;;;;;19.63;13.48;;;23.40;53.00;;;;;;5008078;28;20280;-58
2021/03/29 12:58:36;;;;;;;19.55;13.50;;;23.40;52.90;;;;;;5009492;28;20026;-55
2021/03/29 13:01:07;;;;;;;20.85;14.63;;;23.20;53.00;;;;;;5009344;28;20187;-58
2021/03/29 13:03:38;;;;;;;18.85;14.40;;;23.30;53.40;;;;;;5008927;28;20010;-59
2021/03/29 13:06:23;;;;;;;17.80;14.88;;;23.90;53.30;;;;;;5009597;28;20034;-57
2021/03/29 13:08:50;;;;;;;17.38;14.43;;;23.70;52.70;;;;;;5007910;28;20080;-57
2021/03/29 13:11:38;;;;;;;18.77;15.15;;;23.70;53.10;;;;;;5009230;28;20022;-56
2021/03/29 13:14:04;;;;;;;16.40;12.52;;;23.40;53.80;;;;;;5009731;28;20437;-59
2021/03/29 13:16:31;;;;;;;20.42;13.30;;;23.40;52.10;;;;;;5009918;28;20022;-60
2021/03/29 13:18:56;;;;;;;21.60;13.20;;;23.70;52.80;;;;;;5009396;28;20025;-59
2021/03/29 13:21:22;;;;;;;18.15;13.10;;;23.50;52.70;;;;;;5008511;28;20828;-58
2021/03/29 13:23:48;;;;;;;17.98;12.30;;;23.30;52.60;;;;;;5009193;28;20030;-56
2021/03/29 13:26:20;;;;;;;18.13;13.13;;;23.50;52.80;;;;;;5008301;28;20030;-53
2021/03/29 13:28:48;;;;;;;18.05;13.48;;;23.70;52.50;;;;;;5010754;28;20490;-57
2021/03/29 13:31:17;;;;;;;20.20;13.13;;;23.80;52.80;;;;;;5013230;28;20157;-57
2021/03/29 13:33:43;;;;;;;20.77;13.68;;;23.80;52.90;;;;;;5011994;28;20026;-58
2021/03/29 13:36:09;;;;;;;18.00;13.20;;;24.10;53.00;;;;;;5013969;28;20032;-59
2021/03/29 13:38:35;;;;;;;17.30;13.60;;;25.00;53.70;;;;;;5013566;28;20026;-59
2021/03/29 13:41:10;;;;;;;20.55;12.88;;;24.80;52.60;;;;;;5011766;28;20037;-60
2021/03/29 13:43:38;;;;;;;17.48;13.93;;;24.10;52.60;;;;;;5012824;28;20037;-57
2021/03/29 13:46:06;;;;;;;18.25;13.00;;;24.20;52.90;;;;;;5012333;28;20487;-59
2021/03/29 13:48:32;;;;;;;18.65;12.88;;;24.00;53.00;;;;;;5013511;28;20033;-57
2021/03/29 13:50:59;;;;;;;18.23;13.40;;;23.80;53.20;;;;;;5013555;28;20022;-57
2021/03/29 13:53:27;;;;;;;17.75;13.35;;;24.00;53.40;;;;;;5013840;28;20391;-56
2021/03/29 13:55:53;;;;;;;19.50;13.05;;;24.10;52.40;;;;;;5010522;28;20057;-59
2021/03/29 13:58:18;;;;;;;18.65;12.77;;;24.00;52.60;;;;;;5015362;28;20060;-54
2021/03/29 14:00:48;;;;;;;17.65;12.70;;;24.50;52.30;;;;;;5015773;28;20034;-58
2021/03/29 14:03:15;;;;;;;17.02;12.60;;;24.10;52.60;;;;;;5014989;28;20422;-57
2021/03/29 14:05:41;;;;;;;20.10;13.15;;;;;;;;;;5013739;28;20028;-56
2021/03/29 14:08:07;;;;;;;16.80;12.20;;;23.90;53.40;;;;;;5015745;28;20037;-55
2021/03/29 14:10:34;;;;;;;18.85;12.88;;;24.80;50.80;;;;;;5006276;28;20026;-60
2021/03/29 14:13:00;;;;;;;18.02;13.05;;;25.10;51.20;;;;;;5010758;28;20022;-59
2021/03/29 14:15:27;;;;;;;16.42;12.63;;;24.80;50.70;;;;;;5013748;28;20086;-59
2021/03/29 14:17:53;;;;;;;20.10;13.65;;;25.10;52.30;;;;;;5013984;28;20471;-59
2021/03/29 14:20:19;;;;;;;20.35;13.93;;;25.30;51.10;;;;;;5010539;28;20041;-59
2021/03/29 14:22:44;;;;;;;18.02;12.70;;;25.30;50.50;;;;;;4661470;28;10000156;-60
2021/03/29 14:25:12;;;;;;;19.50;13.65;;;25.00;50.70;;;;;;5012599;28;20660;-58